Time;durP1;ratioP1;P1;durP2;ratioP2;P2;SDS_P1;SDS_P2;PMS_P1;PMS_P2;Temp;Humidity;BMP_temperature;BMP_pressure;BME280_temperature;BME280_humidity;BME280_pressure;Samples;Min_cycle;Max_cycle;Signal;HPM_P1;HPM_P2
2021/03/28 00:00:15;;;;;;;32.38;22.33;;;;;;;6.86;92.46;99006.75;4936714;29;20102;-80
2021/03/28 00:02:51;;;;;;;31.10;22.52;;;;;;;6.94;92.41;99009.91;4935979;29;20087;-79
2021/03/28 00:05:22;;;;;;;30.52;20.27;;;;;;;6.87;92.20;99009.22;4936299;29;20027;-78
2021/03/28 00:07:50;;;;;;;34.80;21.10;;;;;;;6.81;92.33;99017.53;4936895;29;20063;-86
2021/03/28 00:10:42;;;;;;;27.50;20.00;;;;;;;7.07;91.52;99016.91;4940118;29;20028;-84
2021/03/28 00:13:10;;;;;;;31.70;21.52;;;;;;;6.97;91.28;99019.44;4939314;29;20055;-84
2021/03/28 00:15:44;;;;;;;32.83;21.00;;;;;;;6.86;91.47;99018.44;4936424;29;20022;-81
2021/03/28 00:18:15;;;;;;;27.90;18.23;;;;;;;7.02;90.89;99024.16;4918320;29;20209;-81
2021/03/28 00:20:42;;;;;;;25.63;17.63;;;;;;;6.97;90.60;99033.88;4935897;29;20026;-82
2021/03/28 00:23:25;;;;;;;29.45;19.73;;;;;;;6.96;90.53;99031.38;4918902;29;20537;-81
2021/03/28 00:26:29;;;;;;;27.73;20.35;;;;;;;6.97;90.89;99033.03;4918637;29;20561;-82
2021/03/28 00:29:24;;;;;;;30.80;19.40;;;;;;;7.10;90.30;99038.19;4854952;29;20037;-82
2021/03/28 00:31:57;;;;;;;36.78;20.02;;;;;;;7.12;90.18;99032.47;4854248;29;20033;-81
2021/03/28 00:34:28;;;;;;;27.17;19.92;;;;;;;7.08;90.06;99025.91;4901684;29;20063;-79
2021/03/28 00:37:08;;;;;;;31.48;20.38;;;;;;;7.05;90.31;99029.91;4916481;29;20060;-82
2021/03/28 00:39:40;;;;;;;38.00;22.27;;;;;;;7.03;90.12;99028.50;4916536;29;20043;-79
2021/03/28 00:42:09;;;;;;;32.42;20.95;;;;;;;6.99;90.17;99034.44;4935505;29;20389;-82
2021/03/28 00:44:48;;;;;;;31.77;20.88;;;;;;;6.94;90.60;99036.25;4935421;29;20032;-80
2021/03/28 00:47:22;;;;;;;30.88;21.17;;;;;;;7.12;89.93;99025.13;4935452;29;20791;-83
2021/03/28 00:50:00;;;;;;;28.15;20.35;;;;;;;7.21;89.65;99039.97;4918619;29;20163;-83
2021/03/28 00:52:32;;;;;;;35.13;20.45;;;;;;;7.18;89.38;99039.66;4935756;29;20023;-85
2021/03/28 00:55:20;;;;;;;30.88;22.52;;;;;;;7.02;89.59;99027.69;4935834;29;20393;-83
2021/03/28 00:58:17;;;;;;;30.92;19.27;;;;;;;7.16;89.44;99036.38;4935878;29;20050;-84
2021/03/28 01:01:12;;;;;;;23.90;15.20;;;;;;;7.07;89.26;99046.00;4918962;29;20068;-83
2021/03/28 01:04:07;;;;;;;28.13;20.10;;;;;;;7.05;89.33;99046.22;4927005;29;20052;-83
2021/03/28 01:06:41;;;;;;;30.70;21.48;;;;;;;6.96;89.67;99051.25;4897896;29;20489;-82
2021/03/28 01:09:16;;;;;;;34.75;21.98;;;;;;;7.11;89.37;99042.53;4935470;29;20122;-83
2021/03/28 01:12:02;;;;;;;31.25;21.98;;;;;;;7.26;88.46;99050.97;4935733;29;20103;-82
2021/03/28 01:14:40;;;;;;;;;;;;;;;7.25;88.33;99048.47;4935983;29;20038;-82
2021/03/28 01:17:41;;;;;;;29.48;20.50;;;;;;;7.30;88.24;99043.94;4918960;29;19924;-83
2021/03/28 01:20:21;;;;;;;26.42;19.45;;;;;;;7.31;88.12;99044.78;4919143;29;20126;-80
2021/03/28 01:22:54;;;;;;;31.85;22.10;;;;;;;7.42;87.98;99046.59;4934642;29;20032;-79
2021/03/28 01:25:35;;;;;;;27.17;19.55;;;;;;;7.47;87.87;99054.84;4934838;29;20043;-85
2021/03/28 01:28:24;;;;;;;31.00;20.38;;;;;;;7.45;87.40;99051.56;4935185;29;20062;-81
2021/03/28 01:30:58;;;;;;;29.92;19.48;;;;;;;7.59;87.12;99044.69;4935859;29;20027;-82
2021/03/28 01:33:41;;;;;;;25.58;17.50;;;;;;;7.68;86.71;99053.25;4935286;29;20543;-84
2021/03/28 01:36:27;;;;;;;28.85;19.58;;;;;;;7.79;85.88;99052.34;4935030;29;20042;-85
2021/03/28 01:39:24;;;;;;;24.95;17.48;;;;;;;7.80;85.95;99060.25;4904688;29;20496;-81
2021/03/28 01:42:00;;;;;;;27.55;18.45;;;;;;;7.72;86.26;99063.41;4935230;29;20566;-83
2021/03/28 01:44:42;;;;;;;28.98;20.77;;;;;;;7.59;86.98;99071.91;4902541;29;20035;-84
2021/03/28 01:47:36;;;;;;;30.55;20.67;;;;;;;7.51;87.54;99066.88;4935616;29;20106;-84
2021/03/28 01:50:19;;;;;;;27.20;19.38;;;;;;;7.51;87.93;99069.59;4938826;29;20114;-85
2021/03/28 01:53:07;;;;;;;33.55;21.05;;;;;;;7.66;87.58;99069.84;4938138;29;20032;-86
2021/03/28 01:55:49;;;;;;;30.48;19.88;;;;;;;7.72;87.19;99076.19;4920179;29;20028;-87
2021/03/28 01:58:36;;;;;;;33.65;21.35;;;;;;;7.65;87.49;99078.25;4920244;29;20042;-87
2021/03/28 02:01:27;;;;;;;28.38;19.92;;;;;;;7.69;87.18;99082.13;4937621;29;20071;-86
2021/03/28 02:03:55;;;;;;;29.95;19.90;;;;;;;7.75;86.78;99087.41;4936873;29;20593;-86
2021/03/28 02:06:57;;;;;;;33.70;23.58;;;;;;;7.63;87.16;99081.22;4937702;29;20035;-84
2021/03/28 02:09:41;;;;;;;30.55;18.98;;;;;;;7.52;87.65;99091.13;4921156;29;20449;-87
2021/03/28 02:12:16;;;;;;;32.42;20.35;;;;;;;7.56;87.62;99086.00;4938021;29;20047;-86
2021/03/28 02:15:09;;;;;;;28.13;19.02;;;;;;;7.57;87.46;99084.13;4938568;29;20070;-89
2021/03/28 02:17:50;;;;;;;30.08;20.73;;;;;;;7.69;87.31;99079.41;4920759;29;20031;-86
2021/03/28 02:20:29;;;;;;;31.45;22.88;;;;;;;7.68;87.08;99083.19;4937723;29;20111;-88
2021/03/28 02:23:09;;;;;;;29.23;20.25;;;;;;;7.52;88.16;99085.69;4920651;29;20488;-88
2021/03/28 02:25:52;;;;;;;32.03;20.02;;;;;;;7.57;87.66;99092.28;4937944;29;20492;-87
2021/03/28 02:28:42;;;;;;;30.33;20.80;;;;;;;7.74;87.21;99093.09;4937794;29;20020;-86
2021/03/28 02:31:29;;;;;;;30.33;19.90;;;;;;;7.62;87.51;99090.47;4938735;29;20890;-86
2021/03/28 02:34:12;;;;;;;35.22;21.02;;;;;;;7.55;88.15;99087.06;4938150;29;20032;-86
2021/03/28 02:36:42;;;;;;;30.60;20.95;;;;;;;7.57;88.30;99095.00;4939119;29;20106;-87
2021/03/28 02:39:13;;;;;;;30.95;20.25;;;;;;;7.56;88.25;99096.91;4938976;29;20080;-85
2021/03/28 02:42:11;;;;;;;34.40;22.80;;;;;;;7.54;88.60;99102.59;4921331;29;20532;-88
2021/03/28 02:44:51;;;;;;;33.25;20.55;;;;;;;7.66;88.38;99099.78;4939145;29;20504;-86
2021/03/28 02:47:25;;;;;;;29.17;20.38;;;;;;;7.68;88.36;99103.09;4921114;29;20024;-87
2021/03/28 02:50:13;;;;;;;28.10;20.42;;;;;;;7.68;88.24;99103.09;4938512;29;20023;-86
2021/03/28 02:53:06;;;;;;;30.95;18.50;;;;;;;7.74;88.08;99112.16;4932436;29;20058;-87
2021/03/28 02:55:44;;;;;;;25.20;19.50;;;;;;;7.64;88.33;99114.72;4938136;29;20035;-87
2021/03/28 02:58:28;;;;;;;31.75;20.90;;;;;;;7.62;88.32;99117.69;4920621;29;20118;-87
2021/03/28 03:01:36;;;;;;;27.52;18.10;;;;;;;7.85;87.71;99120.25;4921023;29;20055;-86
2021/03/28 03:04:39;;;;;;;30.00;21.15;;;;;;;7.70;88.26;99125.47;4892699;29;20040;-86
2021/03/28 03:07:40;;;;;;;31.20;19.98;;;;;;;7.66;88.70;99137.91;4938057;29;20118;-86
2021/03/28 03:10:30;;;;;;;30.35;21.52;;;;;;;7.55;89.29;99142.34;4920784;29;20420;-88
2021/03/28 03:13:33;;;;;;;28.35;20.52;;;;;;;7.70;88.79;99139.06;4937610;29;20527;-88
2021/03/28 03:16:26;;;;;;;30.63;20.60;;;;;;;7.67;89.08;99141.47;4937680;29;20024;-87
2021/03/28 03:19:22;;;;;;;32.80;20.92;;;;;;;7.75;89.26;99157.38;4887031;29;20051;-85
2021/03/28 03:22:09;;;;;;;29.48;20.95;;;;;;;7.90;89.19;99160.34;4935822;29;20508;-86
2021/03/28 03:25:17;;;;;;;38.45;22.75;;;;;;;7.96;89.07;99156.63;4916283;29;20091;-85
2021/03/28 03:27:48;;;;;;;;;;;;;;;7.94;90.39;99170.50;4934218;29;20032;-84
2021/03/28 03:30:14;;;;;;;25.83;18.63;;;;;;;8.10;90.82;99163.41;4938654;29;19970;-84
2021/03/28 03:33:02;;;;;;;27.52;20.95;;;;;;;8.02;92.27;99175.53;4938472;29;20480;-85
2021/03/28 03:35:39;;;;;;;30.88;22.92;;;;;;;7.86;94.92;99172.84;4938128;29;20108;-81
2021/03/28 03:38:26;;;;;;;33.33;21.02;;;;;;;7.83;95.65;99195.13;4938047;29;20499;-86
2021/03/28 03:41:14;;;;;;;32.83;21.88;;;;;;;7.88;96.52;99192.47;4938583;29;20031;-85
2021/03/28 03:44:14;;;;;;;31.75;20.30;;;;;;;7.86;96.06;99189.97;4921707;29;20027;-86
2021/03/28 03:47:01;;;;;;;35.50;22.90;;;;;;;7.94;96.39;99186.84;4938077;29;20035;-85
2021/03/28 03:49:35;;;;;;;29.65;18.85;;;;;;;7.86;96.58;99186.44;4938765;29;20119;-87
2021/03/28 03:52:16;;;;;;;31.42;23.08;;;;;;;7.79;98.19;99202.13;4938678;29;20031;-84
2021/03/28 03:54:59;;;;;;;30.75;22.40;;;;;;;7.79;99.33;99207.56;4937268;29;20480;-83
2021/03/28 03:57:39;;;;;;;37.60;24.52;;;;;;;7.86;99.72;99202.78;4937038;29;20111;-84
2021/03/28 04:00:23;;;;;;;38.00;22.63;;;;;;;7.82;98.79;99207.06;4937622;29;20028;-84
2021/03/28 04:03:07;;;;;;;41.88;24.35;;;;;;;7.79;99.72;99202.94;4937527;29;20032;-83
2021/03/28 04:05:59;;;;;;;34.35;22.73;;;;;;;7.90;99.11;99201.22;4937530;29;20035;-81
2021/03/28 04:08:41;;;;;;;31.50;22.30;;;;;;;7.93;98.04;99203.44;4937221;29;20043;-81
2021/03/28 04:11:21;;;;;;;28.50;18.65;;;;;;;7.95;95.06;99215.75;4919973;29;20059;-83
2021/03/28 04:14:05;;;;;;;29.02;19.67;;;;;;;8.02;95.35;99205.50;4919468;29;20030;-81
2021/03/28 04:16:51;;;;;;;25.23;16.52;;;;;;;7.94;93.56;99221.44;4919733;29;20023;-84
2021/03/28 04:19:19;;;;;;;16.60;10.93;;;;;;;7.99;91.01;99216.06;4936845;29;20040;-84
2021/03/28 04:22:02;;;;;;;16.83;9.20;;;;;;;8.04;90.28;99219.72;4936968;29;20481;-86
2021/03/28 04:24:46;;;;;;;14.00;8.70;;;;;;;7.99;90.01;99226.97;4919450;29;20114;-82
2021/03/28 04:27:46;;;;;;;14.30;7.75;;;;;;;8.06;89.28;99228.47;4937020;29;20063;-82
2021/03/28 04:30:35;;;;;;;13.32;8.10;;;;;;;7.98;89.29;99234.34;4934897;29;20024;-81
2021/03/28 04:33:13;;;;;;;9.82;6.60;;;;;;;7.99;89.11;99237.84;4901066;29;20088;-84
2021/03/28 04:35:51;;;;;;;10.70;6.35;;;;;;;7.99;87.62;99241.41;4901226;29;20056;-84
2021/03/28 04:38:54;;;;;;;8.90;6.18;;;;;;;7.99;88.16;99233.25;4935023;29;20047;-82
2021/03/28 04:41:31;;;;;;;7.47;5.78;;;;;;;7.99;88.13;99238.69;4936184;29;20094;-84
2021/03/28 04:44:08;;;;;;;10.15;6.43;;;;;;;8.00;88.31;99234.91;4936402;29;20027;-84
2021/03/28 04:47:05;;;;;;;13.70;7.07;;;;;;;7.97;89.68;99242.75;4936819;29;20544;-84
2021/03/28 04:49:36;;;;;;;28.63;9.77;;;;;;;7.97;89.16;99240.84;4908729;29;20075;-83
2021/03/28 04:52:19;;;;;;;10.93;6.90;;;;;;;7.99;89.70;99240.59;4918079;29;20087;-86
2021/03/28 04:55:04;;;;;;;15.45;6.50;;;;;;;7.99;89.71;99246.03;4918349;29;20456;-84
2021/03/28 04:57:52;;;;;;;8.65;6.00;;;;;;;7.91;89.39;99236.38;4900665;29;20020;-84
2021/03/28 05:00:38;;;;;;;8.38;5.40;;;;;;;7.95;89.92;99261.25;4918452;29;20048;-88
2021/03/28 05:03:04;;;;;;;;;;;;;;;7.92;89.25;99268.00;4902226;29;20032;-87
2021/03/28 05:05:38;;;;;;;6.83;4.43;;;;;;;7.95;87.99;99275.69;4918174;29;19914;-86
2021/03/28 05:08:48;;;;;;;7.65;5.03;;;;;;;7.96;87.54;99276.50;4918295;29;20028;-85
2021/03/28 05:11:25;;;;;;;8.25;5.20;;;;;;;7.99;88.21;99281.44;4898346;29;20422;-86
2021/03/28 05:14:15;;;;;;;7.07;5.28;;;;;;;7.98;88.02;99277.94;4917495;29;20474;-86
2021/03/28 05:16:53;;;;;;;8.38;6.78;;;;;;;7.95;88.49;99283.03;4917487;29;20649;-85
2021/03/28 05:19:46;;;;;;;12.05;6.95;;;;;;;7.96;88.71;99284.66;4900581;29;20043;-86
2021/03/28 05:22:41;;;;;;;15.23;8.05;;;;;;;7.89;89.43;99284.81;4917287;29;20036;-83
2021/03/28 05:25:29;;;;;;;11.27;7.93;;;;;;;7.88;90.26;99285.06;4900088;29;20052;-86
2021/03/28 05:28:13;;;;;;;11.38;8.45;;;;;;;7.85;89.92;99286.41;4900836;29;20032;-85
2021/03/28 05:31:06;;;;;;;15.07;8.05;;;;;;;7.83;89.16;99290.44;4901263;29;20500;-86
2021/03/28 05:34:08;;;;;;;10.13;7.88;;;;;;;7.81;89.65;99284.41;4916902;29;20032;-84
2021/03/28 05:36:55;;;;;;;11.55;6.78;;;;;;;7.79;89.36;99286.56;4917433;29;20036;-84
2021/03/28 05:39:21;;;;;;;11.00;7.18;;;;;;;7.83;89.25;99290.44;4917142;29;20051;-85
2021/03/28 05:42:09;;;;;;;7.70;5.93;;;;;;;7.85;87.81;99288.28;4917251;29;20031;-85
2021/03/28 05:45:03;;;;;;;8.77;6.60;;;;;;;7.80;87.67;99288.22;4918684;29;20044;-85
2021/03/28 05:47:53;;;;;;;8.75;5.72;;;;;;;7.90;88.47;99300.09;4917364;29;20036;-87
2021/03/28 05:50:53;;;;;;;7.70;5.90;;;;;;;7.89;87.93;99301.16;4918355;29;20024;-83
2021/03/28 05:53:55;;;;;;;8.40;4.85;;;;;;;7.89;87.71;99305.81;4916694;29;20489;-86
2021/03/28 05:56:49;;;;;;;24.25;16.27;;;;;;;7.96;87.35;99311.91;4918524;29;20032;-85
2021/03/28 05:59:52;;;;;;;9.05;7.10;;;;;;;7.84;88.37;99303.81;4899635;29;20036;-87
2021/03/28 06:02:56;;;;;;;21.05;10.90;;;;;;;7.88;88.10;99318.59;4899942;29;20051;-86
2021/03/28 06:05:54;;;;;;;9.77;6.32;;;;;;;7.86;87.36;99309.03;4917035;29;20099;-86
2021/03/28 06:08:26;;;;;;;6.18;4.45;;;;;;;7.87;88.56;99330.56;4917712;29;20111;-86
2021/03/28 06:11:06;;;;;;;12.50;8.15;;;;;;;7.92;85.91;99327.94;4917003;29;20101;-82
2021/03/28 06:14:17;;;;;;;8.48;6.05;;;;;;;7.88;86.23;99334.09;4917502;29;20125;-85
2021/03/28 06:17:13;;;;;;;8.13;5.05;;;;;;;7.93;85.39;99317.84;4914546;29;20039;-75
2021/03/28 06:20:15;;;;;;;4.97;4.45;;;;;;;7.96;85.52;99331.81;4915009;29;20052;-86
2021/03/28 06:23:00;;;;;;;7.10;4.50;;;;;;;8.01;85.07;99333.81;4917967;29;20024;-87
2021/03/28 06:25:43;;;;;;;3.53;3.22;;;;;;;7.95;85.86;99330.19;4928223;29;20052;-86
2021/03/28 06:28:46;;;;;;;4.70;4.05;;;;;;;7.90;85.50;99330.06;4913555;29;20043;-86
2021/03/28 06:31:40;;;;;;;5.95;3.80;;;;;;;7.89;86.86;99335.78;4906231;29;20036;-86
2021/03/28 06:34:36;;;;;;;5.13;3.28;;;;;;;7.86;86.99;99331.63;4927840;29;20114;-88
2021/03/28 06:37:11;;;;;;;4.55;3.42;;;;;;;7.88;86.06;99339.56;4906076;29;20028;-86
2021/03/28 06:40:01;;;;;;;9.52;3.95;;;;;;;7.88;86.53;99342.28;4907649;29;20036;-86
2021/03/28 06:42:38;;;;;;;5.10;3.72;;;;;;;7.85;86.69;99348.22;4919099;29;20093;-85
2021/03/28 06:45:22;;;;;;;5.28;4.05;;;;;;;7.78;88.12;99351.09;4903093;29;20033;-86
2021/03/28 06:48:21;;;;;;;6.72;3.83;;;;;;;7.75;86.90;99335.22;4920635;29;20068;-83
2021/03/28 06:51:23;;;;;;;6.07;4.53;;;;;;;7.86;85.97;99349.88;4929055;29;20068;-85
2021/03/28 06:54:14;;;;;;;4.68;3.53;;;;;;;7.87;85.75;99370.59;4924622;29;20020;-81
2021/03/28 06:57:01;;;;;;;4.32;2.95;;;;;;;7.73;85.78;99361.88;4940966;29;20020;-81
2021/03/28 06:59:45;;;;;;;4.28;3.15;;;;;;;7.91;85.70;99369.88;4940864;29;20031;-84
2021/03/28 07:02:56;;;;;;;4.25;2.60;;;;;;;7.88;84.49;99372.25;4924205;29;20012;-80
2021/03/28 07:05:54;;;;;;;4.22;3.22;;;;;;;7.84;83.55;99371.06;4907287;29;20115;-84
2021/03/28 07:08:31;;;;;;;4.82;2.75;;;;;;;7.88;84.48;99385.88;4927627;29;20020;-85
2021/03/28 07:11:47;;;;;;;6.53;3.30;;;;;;;7.89;83.41;99379.34;4944300;29;20028;-81
2021/03/28 07:15:07;;;;;;;3.40;2.45;;;;;;;7.92;82.66;99395.22;4944527;29;20036;-80
2021/03/28 07:17:32;;;;;;;3.50;2.55;;;;;;;7.94;81.91;99398.50;4927403;29;20052;-80
2021/03/28 07:20:33;;;;;;;5.57;2.60;;;;;;;7.90;81.97;99400.06;4926562;29;20028;-86
2021/03/28 07:23:23;;;;;;;3.33;2.58;;;;;;;7.98;82.10;99396.97;4937815;29;20489;-84
2021/03/28 07:26:15;;;;;;;4.28;2.78;;;;;;;7.98;82.42;99399.69;4943768;29;20059;-79
2021/03/28 07:29:18;;;;;;;3.80;2.83;;;;;;;7.96;81.99;99412.72;4942670;29;20135;-82
2021/03/28 07:32:17;;;;;;;5.25;3.88;;;;;;;7.91;81.14;99401.72;4923827;29;20028;-84
2021/03/28 07:35:06;;;;;;;3.00;2.15;;;;;;;8.00;81.55;99411.16;4915987;29;20034;-85
2021/03/28 07:38:13;;;;;;;4.70;3.15;;;;;;;8.01;82.31;99413.66;4928388;29;20054;-87
2021/03/28 07:40:44;;;;;;;4.28;2.33;;;;;;;8.06;81.02;99418.38;4923047;29;20040;-86
2021/03/28 07:43:52;;;;;;;5.80;2.53;;;;;;;8.11;79.69;99421.22;4931301;29;20370;-84
2021/03/28 07:46:31;;;;;;;2.67;1.88;;;;;;;8.12;79.42;99431.00;4924969;29;20040;-86
2021/03/28 07:49:13;;;;;;;4.00;3.38;;;;;;;8.16;79.17;99429.47;4938829;29;20060;-85
2021/03/28 07:51:58;;;;;;;4.40;2.25;;;;;;;8.22;79.57;99433.94;4949551;29;20511;-84
2021/03/28 07:54:51;;;;;;;5.20;2.53;;;;;;;8.18;79.09;99432.78;4961429;29;20012;-80
2021/03/28 07:57:33;;;;;;;4.15;2.90;;;;;;;8.15;79.64;99426.97;4962071;29;20080;-88
2021/03/28 08:00:16;;;;;;;5.82;2.38;;;;;;;8.23;78.90;99429.31;4941609;29;20044;-89
2021/03/28 08:03:00;;;;;;;4.00;2.67;;;;;;;8.28;79.77;99430.28;4953410;29;20032;-87
2021/03/28 08:05:56;;;;;;;4.43;2.50;;;;;;;8.23;78.39;99438.34;4947084;29;20047;-89
2021/03/28 08:08:59;;;;;;;2.92;2.13;;;;;;;8.21;78.38;99439.63;4930972;29;20043;-87
2021/03/28 08:11:53;;;;;;;2.67;2.13;;;;;;;8.24;78.57;99437.25;4942206;29;20028;-86
2021/03/28 08:14:57;;;;;;;2.92;2.40;;;;;;;8.29;78.28;99448.28;4924708;29;20020;-88
2021/03/28 08:17:41;;;;;;;3.50;2.45;;;;;;;8.40;77.72;99461.03;4950813;29;20012;-87
2021/03/28 08:20:06;;;;;;;5.78;3.60;;;;;;;8.41;76.91;99459.97;4940849;29;20088;-83
2021/03/28 08:23:18;;;;;;;3.25;2.60;;;;;;;8.43;76.79;99455.09;4934811;29;20031;-83
2021/03/28 08:26:14;;;;;;;6.80;3.03;;;;;;;8.48;76.66;99463.38;4938919;28;20059;-82
2021/03/28 08:29:07;;;;;;;4.25;2.22;;;;;;;8.41;76.66;99464.59;4943414;29;20032;-85
2021/03/28 08:31:39;;;;;;;5.10;2.40;;;;;;;8.38;76.02;99460.47;4943724;29;20016;-86
2021/03/28 08:34:42;;;;;;;5.57;2.40;;;;;;;8.42;77.39;99472.53;4927953;29;20040;-86
2021/03/28 08:37:29;;;;;;;4.60;3.45;;;;;;;8.44;76.99;99478.56;4947484;29;20015;-84
2021/03/28 08:40:08;;;;;;;;;;;;;;;8.44;77.02;99475.00;4935417;29;20031;-84
2021/03/28 08:43:07;;;;;;;2.03;1.63;;;;;;;8.44;77.16;99481.28;4942370;29;19914;-80
2021/03/28 08:45:51;;;;;;;4.53;2.05;;;;;;;8.38;75.39;99487.72;4961347;29;20018;-83
2021/03/28 08:48:35;;;;;;;7.43;3.50;;;;;;;8.39;76.13;99492.13;4944704;29;20087;-81
2021/03/28 08:51:19;;;;;;;5.28;2.50;;;;;;;8.39;77.06;99494.84;4961167;29;20051;-85
2021/03/28 08:54:04;;;;;;;2.25;1.88;;;;;;;8.40;75.00;99493.75;4960385;29;20063;-84
2021/03/28 08:57:01;;;;;;;4.45;2.40;;;;;;;8.41;74.86;99498.16;4943306;29;20022;-87
2021/03/28 08:59:29;;;;;;;3.45;2.42;;;;;;;8.41;74.91;99495.41;4930455;28;20091;-80
2021/03/28 09:02:07;;;;;;;6.88;2.40;;;;;;;8.46;74.97;99503.69;4960474;29;20023;-81
2021/03/28 09:04:47;;;;;;;3.45;2.13;;;;;;;8.43;74.30;99498.72;4947108;29;20015;-84
2021/03/28 09:07:50;;;;;;;1.80;1.67;;;;;;;8.44;74.17;99510.47;4941584;29;20013;-83
2021/03/28 09:10:23;;;;;;;3.50;2.30;;;;;;;8.48;75.32;99515.19;4922631;29;20033;-88
2021/03/28 09:13:20;;;;;;;3.33;2.40;;;;;;;8.45;76.28;99521.13;4937356;29;20012;-87
2021/03/28 09:16:14;;;;;;;5.18;2.60;;;;;;;8.44;77.07;99514.00;4922208;29;20374;-86
2021/03/28 09:19:21;;;;;;;3.65;2.55;;;;;;;8.35;78.03;99509.19;4946629;29;20011;-81
2021/03/28 09:22:10;;;;;;;4.53;2.33;;;;;;;8.29;78.53;99510.16;4960326;29;20051;-83
2021/03/28 09:25:09;;;;;;;3.97;2.80;;;;;;;8.29;79.94;99505.53;4949591;29;20016;-83
2021/03/28 09:28:14;;;;;;;5.10;2.90;;;;;;;8.18;80.85;99481.81;4918213;29;20054;-76
2021/03/28 09:31:01;;;;;;;5.38;3.22;;;;;;;8.32;80.89;99515.97;4916284;29;20059;-83
2021/03/28 09:33:45;;;;;;;;;;;;;;;8.26;82.53;99522.34;4898492;29;20028;-82
2021/03/28 09:36:48;;;;;;;4.55;3.08;;;;;;;8.21;81.11;99514.03;4917407;29;19923;-83
2021/03/28 09:39:29;;;;;;;4.20;3.03;;;;;;;8.18;81.37;99503.63;4915122;29;20052;-82
2021/03/28 09:42:32;;;;;;;5.93;2.90;;;;;;;8.28;81.69;99522.97;4919045;29;20124;-87
2021/03/28 09:45:35;;;;;;;4.82;3.38;;;;;;;8.34;82.33;99519.25;4909490;29;20179;-81
2021/03/28 09:48:42;;;;;;;5.03;2.90;;;;;;;8.38;81.58;99528.63;4913853;29;20043;-76
2021/03/28 09:51:40;;;;;;;4.57;3.30;;;;;;;8.49;80.42;99533.19;4837277;29;20034;-84
2021/03/28 09:54:43;;;;;;;5.20;2.85;;;;;;;8.46;80.99;99539.13;4833472;29;20053;-82
2021/03/28 09:57:11;;;;;;;5.82;2.80;;;;;;;8.43;81.74;99539.63;4886176;29;20056;-82
2021/03/28 10:00:18;;;;;;;5.25;2.70;;;;;;;8.36;80.41;99533.50;4912329;29;20031;-77
2021/03/28 10:03:14;;;;;;;4.30;2.97;;;;;;;8.37;81.30;99539.75;4913027;29;20388;-79
2021/03/28 10:05:41;;;;;;;4.03;2.65;;;;;;;8.25;81.25;99537.03;4913895;29;20032;-81
2021/03/28 10:08:13;;;;;;;3.58;3.03;;;;;;;8.17;82.28;99528.41;4907749;29;20055;-80
2021/03/28 10:11:01;;;;;;;4.78;3.08;;;;;;;8.27;82.36;99537.63;4897096;29;20032;-78
2021/03/28 10:13:48;;;;;;;3.78;2.40;;;;;;;8.31;83.17;99549.72;4913327;29;20032;-77
2021/03/28 10:16:27;;;;;;;5.57;2.78;;;;;;;8.15;82.07;99536.81;4933931;29;20050;-87
2021/03/28 10:19:14;;;;;;;5.93;3.28;;;;;;;8.20;82.79;99549.75;4932444;29;20518;-83
2021/03/28 10:22:07;;;;;;;4.88;3.20;;;;;;;8.15;82.20;99547.72;4920403;29;20072;-80
2021/03/28 10:25:27;;;;;;;5.55;3.38;;;;;;;8.14;82.69;99546.09;4914509;29;20035;-86
2021/03/28 10:28:11;;;;;;;4.28;3.88;;;;;;;8.13;82.43;99558.03;4873165;29;20049;-78
2021/03/28 10:30:43;;;;;;;3.85;3.30;;;;;;;8.16;83.32;99554.00;4894789;29;20107;-76
2021/03/28 10:33:47;;;;;;;5.15;3.50;;;;;;;8.13;82.78;99549.88;4894838;29;20089;-79
2021/03/28 10:36:34;;;;;;;4.63;2.80;;;;;;;8.15;82.43;99547.72;4877644;29;20520;-85
2021/03/28 10:39:31;;;;;;;4.20;3.53;;;;;;;8.23;82.37;99555.53;4904052;29;20032;-83
2021/03/28 10:42:18;;;;;;;8.95;4.00;;;;;;;8.24;82.58;99551.72;4897224;29;20426;-88
2021/03/28 10:45:03;;;;;;;6.45;3.35;;;;;;;8.27;82.13;99545.78;4902673;29;20032;-77
2021/03/28 10:47:50;;;;;;;4.25;3.13;;;;;;;8.39;82.20;99549.38;4906524;29;20025;-81
2021/03/28 10:50:34;;;;;;;;;;;;;;;8.37;81.23;99554.22;4903754;29;20028;-86
2021/03/28 10:53:08;;;;;;;28.60;17.83;;;;;;;8.44;81.61;99549.47;4910626;29;19926;-76
2021/03/28 10:55:58;;;;;;;4.47;3.20;;;;;;;8.43;82.23;99547.78;4913365;29;20024;-78
2021/03/28 10:58:38;;;;;;;5.18;3.30;;;;;;;8.43;82.00;99550.53;4910091;29;20059;-86
2021/03/28 11:01:31;;;;;;;3.90;3.35;;;;;;;8.44;81.97;99543.19;4909633;29;20036;-84
2021/03/28 11:04:46;;;;;;;5.38;2.55;;;;;;;8.69;81.83;99545.56;4911095;29;20401;-85
2021/03/28 11:07:25;;;;;;;6.15;3.25;;;;;;;8.84;81.78;99554.03;4912856;29;20508;-86
2021/03/28 11:10:12;;;;;;;4.35;2.60;;;;;;;8.72;78.61;99561.44;4924597;29;20569;-86
2021/03/28 11:12:53;;;;;;;4.43;3.15;;;;;;;8.73;81.38;99569.41;4897037;29;20036;-86
2021/03/28 11:15:32;;;;;;;3.20;2.33;;;;;;;8.64;78.94;99556.38;4883785;29;20036;-84
2021/03/28 11:18:07;;;;;;;3.17;2.42;;;;;;;8.71;78.65;99551.63;4888246;29;20061;-78
2021/03/28 11:20:51;;;;;;;9.52;3.28;;;;;;;8.78;78.06;99557.75;4896445;29;20036;-75
2021/03/28 11:23:44;;;;;;;7.32;5.32;;;;;;;8.84;77.08;99556.75;4914561;29;20449;-83
2021/03/28 11:26:34;;;;;;;6.35;2.70;;;;;;;8.77;78.13;99551.44;4925061;29;20099;-87
2021/03/28 11:29:08;;;;;;;3.55;2.50;;;;;;;8.82;78.08;99553.47;4933618;29;20074;-82
2021/03/28 11:31:49;;;;;;;3.60;2.65;;;;;;;8.65;75.25;99552.56;4904113;29;20064;-84
2021/03/28 11:34:41;;;;;;;3.88;2.42;;;;;;;8.83;76.43;99563.31;4922234;29;20083;-86
2021/03/28 11:37:35;;;;;;;8.27;2.50;;;;;;;9.03;76.05;99550.84;4906090;29;20044;-83
2021/03/28 11:40:07;;;;;;;6.25;2.80;;;;;;;9.04;75.22;99557.16;4888205;29;20060;-79
2021/03/28 11:42:33;;;;;;;6.53;2.65;;;;;;;9.12;75.18;99549.38;4920006;29;20042;-82
2021/03/28 11:45:02;;;;;;;4.97;2.97;;;;;;;9.15;75.56;99556.22;4927281;29;20098;-85
2021/03/28 11:47:48;;;;;;;3.53;2.38;;;;;;;9.00;74.01;99548.63;4948673;29;20016;-87
2021/03/28 11:50:13;;;;;;;5.95;2.40;;;;;;;8.78;74.00;99546.81;4924831;29;20035;-88
2021/03/28 11:53:03;;;;;;;6.97;3.58;;;;;;;8.73;74.48;99539.41;4937760;29;20035;-86
2021/03/28 11:55:37;;;;;;;3.28;2.25;;;;;;;8.64;72.61;99523.66;4930375;29;20107;-86
2021/03/28 11:58:25;;;;;;;4.07;2.65;;;;;;;8.89;73.46;99535.03;4934940;29;20043;-87
2021/03/28 12:00:55;;;;;;;4.07;2.78;;;;;;;8.91;72.27;99530.16;4921642;29;20059;-87
2021/03/28 12:03:23;;;;;;;3.70;2.45;;;;;;;8.83;73.45;99547.78;4915836;29;20046;-86
2021/03/28 12:05:49;;;;;;;4.35;2.15;;;;;;;8.88;73.62;99550.59;4927150;29;20021;-87
2021/03/28 12:38:45;;;;;;;4.43;2.35;;;;;;;9.23;72.96;99494.94;5074047;27;1547173;-80
2021/03/28 12:41:19;;;;;;;3.00;2.72;;;;;;;9.47;72.51;99499.97;5106103;28;20557;-77
2021/03/28 12:43:59;;;;;;;14.27;8.80;;;;;;;9.79;72.92;99499.34;5092457;28;20070;-83
2021/03/28 12:46:27;;;;;;;4.45;3.30;;;;;;;9.72;70.63;99498.69;5107842;28;20472;-78
2021/03/28 12:49:15;;;;;;;2.15;1.95;;;;;;;9.45;70.01;99493.94;5089788;28;20035;-79
2021/03/28 12:51:49;;;;;;;4.15;2.67;;;;;;;9.37;70.62;99485.34;5091412;28;20030;-79
2021/03/28 12:54:22;;;;;;;3.88;2.85;;;;;;;9.36;69.98;99492.72;5109017;28;20027;-79
2021/03/28 12:56:51;;;;;;;5.05;4.38;;;;;;;9.43;70.55;99487.91;5109234;28;20039;-78
2021/03/28 12:59:40;;;;;;;6.75;3.38;;;;;;;9.35;69.25;99480.13;5110389;28;20047;-80
2021/03/28 13:02:28;;;;;;;2.88;2.13;;;;;;;9.27;69.04;99491.47;5111781;28;20488;-79
2021/03/28 13:05:06;;;;;;;3.50;2.30;;;;;;;9.41;70.74;99492.78;5094021;28;20024;-80
2021/03/28 13:07:36;;;;;;;4.35;2.17;;;;;;;9.45;71.03;99493.94;5113996;28;20465;-79
2021/03/28 13:10:05;;;;;;;2.38;2.08;;;;;;;9.30;70.93;99485.53;5110117;28;20027;-77
2021/03/28 13:12:31;;;;;;;4.40;2.63;;;;;;;9.38;71.55;99487.81;5080893;28;20032;-79
2021/03/28 13:15:14;;;;;;;5.90;3.17;;;;;;;9.68;71.78;99495.63;5104669;28;20072;-83
2021/03/28 13:17:40;;;;;;;6.20;3.38;;;;;;;9.58;70.84;99490.88;5098948;28;20035;-79
2021/03/28 13:20:21;;;;;;;4.00;3.60;;;;;;;9.42;70.14;99489.00;5093920;28;20030;-80
2021/03/28 13:22:48;;;;;;;3.45;2.33;;;;;;;9.51;70.52;99487.50;5095360;28;20080;-79
2021/03/28 13:25:13;;;;;;;4.93;2.92;;;;;;;9.74;72.91;99482.91;5096610;28;20024;-84
2021/03/28 13:27:39;;;;;;;3.90;2.30;;;;;;;9.86;72.96;99478.97;5118891;28;20110;-84
2021/03/28 13:30:14;;;;;;;3.30;2.50;;;;;;;9.95;73.18;99488.38;5120979;28;20054;-86
2021/03/28 13:32:39;;;;;;;3.45;2.63;;;;;;;9.98;74.12;99490.59;5102567;28;20087;-84